sensor_id;sensor_type;location;lat;lon;timestamp;pressure;altitude;pressure_sealevel;temperature;humidity
70506;BME280;58032;49.820;6.274;2022-08-21T00:00:45;97796.75;;;11.97;78.01
70506;BME280;58032;49.820;6.274;2022-08-21T00:03:12;97799.22;;;11.95;77.94
70506;BME280;58032;49.820;6.274;2022-08-21T00:05:43;97802.25;;;12.01;77.00
70506;BME280;58032;49.820;6.274;2022-08-21T00:08:11;97802.56;;;12.03;77.35
70506;BME280;58032;49.820;6.274;2022-08-21T00:10:39;97799.13;;;11.99;77.41
70506;BME280;58032;49.820;6.274;2022-08-21T00:13:07;97800.41;;;12.07;77.02
70506;BME280;58032;49.820;6.274;2022-08-21T00:15:37;97800.06;;;12.05;77.45
70506;BME280;58032;49.820;6.274;2022-08-21T00:18:06;97796.34;;;11.86;78.71
70506;BME280;58032;49.820;6.274;2022-08-21T00:20:35;97806.13;;;11.63;78.90
70506;BME280;58032;49.820;6.274;2022-08-21T00:23:02;97803.31;;;11.40;79.37
70506;BME280;58032;49.820;6.274;2022-08-21T00:25:29;97793.69;;;11.29;80.70
70506;BME280;58032;49.820;6.274;2022-08-21T00:27:56;97787.97;;;11.19;81.24
70506;BME280;58032;49.820;6.274;2022-08-21T00:30:25;97796.44;;;11.19;81.29
70506;BME280;58032;49.820;6.274;2022-08-21T00:32:54;97790.78;;;11.19;81.18
70506;BME280;58032;49.820;6.274;2022-08-21T00:35:26;97796.03;;;11.30;81.57
70506;BME280;58032;49.820;6.274;2022-08-21T00:37:53;97790.19;;;11.47;79.84
70506;BME280;58032;49.820;6.274;2022-08-21T00:40:45;97792.47;;;11.61;78.88
70506;BME280;58032;49.820;6.274;2022-08-21T00:43:13;97794.38;;;11.64;79.73
70506;BME280;58032;49.820;6.274;2022-08-21T00:45:40;97785.16;;;11.73;79.11
70506;BME280;58032;49.820;6.274;2022-08-21T00:48:09;97781.31;;;11.57;79.34
70506;BME280;58032;49.820;6.274;2022-08-21T00:50:40;97787.28;;;11.28;80.24
70506;BME280;58032;49.820;6.274;2022-08-21T00:53:10;97786.75;;;10.98;81.35
70506;BME280;58032;49.820;6.274;2022-08-21T00:55:37;97792.41;;;10.85;81.71
70506;BME280;58032;49.820;6.274;2022-08-21T00:58:06;97786.78;;;10.85;82.43
70506;BME280;58032;49.820;6.274;2022-08-21T01:00:37;97789.94;;;10.87;82.61
70506;BME280;58032;49.820;6.274;2022-08-21T01:03:08;97789.94;;;10.87;82.70
70506;BME280;58032;49.820;6.274;2022-08-21T01:05:36;97790.47;;;10.95;82.59
70506;BME280;58032;49.820;6.274;2022-08-21T01:08:04;97788.63;;;11.01;81.43
70506;BME280;58032;49.820;6.274;2022-08-21T01:10:33;97783.41;;;11.13;81.12
70506;BME280;58032;49.820;6.274;2022-08-21T01:13:01;97781.88;;;10.99;81.61
70506;BME280;58032;49.820;6.274;2022-08-21T01:15:32;97775.97;;;10.84;81.75
70506;BME280;58032;49.820;6.274;2022-08-21T01:18:00;97782.81;;;10.96;81.42
70506;BME280;58032;49.820;6.274;2022-08-21T01:20:28;97775.34;;;11.02;80.59
70506;BME280;58032;49.820;6.274;2022-08-21T01:22:55;97785.28;;;10.93;81.20
70506;BME280;58032;49.820;6.274;2022-08-21T01:25:22;97789.06;;;10.77;81.32
70506;BME280;58032;49.820;6.274;2022-08-21T01:27:49;97789.53;;;10.76;82.02
70506;BME280;58032;49.820;6.274;2022-08-21T01:30:20;97795.50;;;10.78;82.08
70506;BME280;58032;49.820;6.274;2022-08-21T01:32:49;97791.44;;;10.79;82.01
70506;BME280;58032;49.820;6.274;2022-08-21T01:35:18;97785.34;;;10.81;82.46
70506;BME280;58032;49.820;6.274;2022-08-21T01:37:47;97780.59;;;10.77;82.83
70506;BME280;58032;49.820;6.274;2022-08-21T01:40:16;97785.97;;;10.63;82.77
70506;BME280;58032;49.820;6.274;2022-08-21T01:42:45;97776.34;;;10.38;83.11
70506;BME280;58032;49.820;6.274;2022-08-21T01:45:13;97780.50;;;10.20;83.67
70506;BME280;58032;49.820;6.274;2022-08-21T01:47:40;97788.72;;;10.14;84.42
70506;BME280;58032;49.820;6.274;2022-08-21T01:50:12;97787.56;;;10.25;85.18
70506;BME280;58032;49.820;6.274;2022-08-21T01:52:40;97779.91;;;10.38;84.70
70506;BME280;58032;49.820;6.274;2022-08-21T01:55:09;97777.31;;;10.44;84.47
70506;BME280;58032;49.820;6.274;2022-08-21T01:57:37;97769.56;;;10.35;84.17
70506;BME280;58032;49.820;6.274;2022-08-21T02:00:07;97768.88;;;10.31;84.45
70506;BME280;58032;49.820;6.274;2022-08-21T02:02:38;97767.44;;;10.26;84.58
70506;BME280;58032;49.820;6.274;2022-08-21T02:05:05;97770.94;;;10.18;84.33
70506;BME280;58032;49.820;6.274;2022-08-21T02:07:49;97769.91;;;10.24;84.29
70506;BME280;58032;49.820;6.274;2022-08-21T02:10:20;97775.19;;;10.35;84.28
70506;BME280;58032;49.820;6.274;2022-08-21T02:12:48;97774.84;;;10.33;83.63
70506;BME280;58032;49.820;6.274;2022-08-21T02:15:16;97770.13;;;10.30;83.82
70506;BME280;58032;49.820;6.274;2022-08-21T02:17:47;97760.25;;;10.25;84.17
70506;BME280;58032;49.820;6.274;2022-08-21T02:20:19;97761.81;;;10.26;83.96
70506;BME280;58032;49.820;6.274;2022-08-21T02:22:47;97766.41;;;10.20;83.64
70506;BME280;58032;49.820;6.274;2022-08-21T02:25:14;97757.44;;;10.25;84.12
70506;BME280;58032;49.820;6.274;2022-08-21T02:27:42;97759.56;;;10.21;83.51
70506;BME280;58032;49.820;6.274;2022-08-21T02:30:13;97759.44;;;10.25;83.93
70506;BME280;58032;49.820;6.274;2022-08-21T02:32:40;97753.03;;;10.24;84.53
70506;BME280;58032;49.820;6.274;2022-08-21T02:35:10;97754.63;;;10.12;85.06
70506;BME280;58032;49.820;6.274;2022-08-21T02:37:58;97752.63;;;9.87;85.40
70506;BME280;58032;49.820;6.274;2022-08-21T02:40:30;97752.84;;;9.67;86.72
70506;BME280;58032;49.820;6.274;2022-08-21T02:42:59;97748.44;;;9.53;87.16
70506;BME280;58032;49.820;6.274;2022-08-21T02:45:27;97751.47;;;9.46;87.44
70506;BME280;58032;49.820;6.274;2022-08-21T02:47:58;97757.81;;;9.50;87.46
70506;BME280;58032;49.820;6.274;2022-08-21T02:50:29;97748.44;;;9.53;87.52
70506;BME280;58032;49.820;6.274;2022-08-21T02:52:57;97744.19;;;9.61;87.49
70506;BME280;58032;49.820;6.274;2022-08-21T02:55:28;97748.13;;;9.77;87.18
70506;BME280;58032;49.820;6.274;2022-08-21T02:57:57;97746.31;;;9.83;86.13
70506;BME280;58032;49.820;6.274;2022-08-21T03:00:27;97745.31;;;9.90;86.00
70506;BME280;58032;49.820;6.274;2022-08-21T03:02:54;97759.25;;;9.93;86.47
70506;BME280;58032;49.820;6.274;2022-08-21T03:05:24;97761.03;;;10.00;86.04
70506;BME280;58032;49.820;6.274;2022-08-21T03:07:51;97760.94;;;10.04;84.83
70506;BME280;58032;49.820;6.274;2022-08-21T03:10:21;97759.16;;;9.97;86.16
70506;BME280;58032;49.820;6.274;2022-08-21T03:12:48;97754.53;;;9.90;87.13
70506;BME280;58032;49.820;6.274;2022-08-21T03:15:17;97748.00;;;9.80;87.59
70506;BME280;58032;49.820;6.274;2022-08-21T03:17:46;97755.78;;;9.63;86.58
70506;BME280;58032;49.820;6.274;2022-08-21T03:20:16;97759.38;;;9.64;86.53
70506;BME280;58032;49.820;6.274;2022-08-21T03:22:44;97748.81;;;9.68;85.98
70506;BME280;58032;49.820;6.274;2022-08-21T03:25:11;97746.00;;;9.68;86.64
70506;BME280;58032;49.820;6.274;2022-08-21T03:27:38;97752.06;;;9.79;86.32
70506;BME280;58032;49.820;6.274;2022-08-21T03:30:07;97752.63;;;9.87;86.84
70506;BME280;58032;49.820;6.274;2022-08-21T03:32:34;97749.00;;;9.87;86.31
70506;BME280;58032;49.820;6.274;2022-08-21T03:35:04;97751.28;;;9.79;86.03
70506;BME280;58032;49.820;6.274;2022-08-21T03:37:31;97751.94;;;9.83;86.74
70506;BME280;58032;49.820;6.274;2022-08-21T03:39:59;97755.22;;;9.81;86.26
70506;BME280;58032;49.820;6.274;2022-08-21T03:42:26;97751.72;;;9.64;86.86
70506;BME280;58032;49.820;6.274;2022-08-21T03:44:53;97756.44;;;9.42;87.82
70506;BME280;58032;49.820;6.274;2022-08-21T03:47:20;97760.69;;;9.33;88.11
70506;BME280;58032;49.820;6.274;2022-08-21T03:49:48;97761.47;;;9.34;88.49
70506;BME280;58032;49.820;6.274;2022-08-21T03:52:16;97758.19;;;9.35;88.80
70506;BME280;58032;49.820;6.274;2022-08-21T03:54:44;97762.16;;;9.38;89.30
70506;BME280;58032;49.820;6.274;2022-08-21T03:57:11;97754.72;;;9.31;88.81
70506;BME280;58032;49.820;6.274;2022-08-21T03:59:39;97764.72;;;9.32;88.49
70506;BME280;58032;49.820;6.274;2022-08-21T04:02:06;97762.28;;;9.34;87.76
70506;BME280;58032;49.820;6.274;2022-08-21T04:04:34;97768.56;;;9.39;88.43
70506;BME280;58032;49.820;6.274;2022-08-21T04:07:01;97775.88;;;9.36;88.82
70506;BME280;58032;49.820;6.274;2022-08-21T04:09:29;97767.28;;;9.27;88.93
70506;BME280;58032;49.820;6.274;2022-08-21T04:11:58;97775.84;;;9.23;88.85
70506;BME280;58032;49.820;6.274;2022-08-21T04:14:25;97770.56;;;9.25;88.78
70506;BME280;58032;49.820;6.274;2022-08-21T04:16:52;97769.34;;;9.26;88.87
70506;BME280;58032;49.820;6.274;2022-08-21T04:19:19;97775.59;;;9.17;88.78
70506;BME280;58032;49.820;6.274;2022-08-21T04:21:46;97784.25;;;9.23;89.05
70506;BME280;58032;49.820;6.274;2022-08-21T04:24:13;97786.25;;;9.10;89.10
70506;BME280;58032;49.820;6.274;2022-08-21T04:26:40;97789.38;;;8.99;88.49
70506;BME280;58032;49.820;6.274;2022-08-21T04:29:07;97784.78;;;9.05;88.04
70506;BME280;58032;49.820;6.274;2022-08-21T04:31:34;97783.88;;;9.08;88.53
70506;BME280;58032;49.820;6.274;2022-08-21T04:34:04;97782.22;;;9.11;90.41
70506;BME280;58032;49.820;6.274;2022-08-21T04:36:32;97784.22;;;9.10;89.99
70506;BME280;58032;49.820;6.274;2022-08-21T04:38:59;97786.25;;;9.10;89.27
70506;BME280;58032;49.820;6.274;2022-08-21T04:41:26;97781.88;;;9.09;89.72
70506;BME280;58032;49.820;6.274;2022-08-21T04:43:54;97783.50;;;9.23;89.11
70506;BME280;58032;49.820;6.274;2022-08-21T04:46:22;97783.91;;;9.21;88.32
70506;BME280;58032;49.820;6.274;2022-08-21T04:48:49;97787.19;;;9.19;88.93
70506;BME280;58032;49.820;6.274;2022-08-21T04:51:25;97796.06;;;9.18;88.85
70506;BME280;58032;49.820;6.274;2022-08-21T04:53:59;97800.00;;;9.21;88.21
70506;BME280;58032;49.820;6.274;2022-08-21T04:56:58;97787.78;;;9.40;87.79
70506;BME280;58032;49.820;6.274;2022-08-21T04:59:33;97786.13;;;9.69;86.73
70506;BME280;58032;49.820;6.274;2022-08-21T05:02:03;97797.28;;;9.85;86.18
70506;BME280;58032;49.820;6.274;2022-08-21T05:04:33;97792.00;;;9.87;86.55
70506;BME280;58032;49.820;6.274;2022-08-21T05:07:04;97791.56;;;10.02;86.99
70506;BME280;58032;49.820;6.274;2022-08-21T05:09:33;97791.75;;;10.20;86.04
70506;BME280;58032;49.820;6.274;2022-08-21T05:12:01;97798.84;;;10.38;85.14
70506;BME280;58032;49.820;6.274;2022-08-21T05:14:29;97792.84;;;10.61;84.55
70506;BME280;58032;49.820;6.274;2022-08-21T05:16:56;97795.56;;;10.87;83.55
70506;BME280;58032;49.820;6.274;2022-08-21T05:19:23;97792.91;;;11.06;81.54
70506;BME280;58032;49.820;6.274;2022-08-21T05:21:50;97793.81;;;11.25;80.21
70506;BME280;58032;49.820;6.274;2022-08-21T05:24:17;97786.94;;;11.26;79.85
70506;BME280;58032;49.820;6.274;2022-08-21T05:26:45;97789.63;;;11.52;79.60
70506;BME280;58032;49.820;6.274;2022-08-21T05:29:14;97789.13;;;11.76;79.47
70506;BME280;58032;49.820;6.274;2022-08-21T05:31:42;97789.41;;;12.00;77.78
70506;BME280;58032;49.820;6.274;2022-08-21T05:34:11;97787.22;;;11.72;80.14
70506;BME280;58032;49.820;6.274;2022-08-21T05:36:38;97786.69;;;11.96;80.62
70506;BME280;58032;49.820;6.274;2022-08-21T05:39:05;97785.81;;;12.68;77.66
70506;BME280;58032;49.820;6.274;2022-08-21T05:41:32;97780.13;;;14.62;69.94
70506;BME280;58032;49.820;6.274;2022-08-21T05:43:59;97776.94;;;15.62;64.89
70506;BME280;58032;49.820;6.274;2022-08-21T05:46:26;97787.88;;;17.59;57.69
70506;BME280;58032;49.820;6.274;2022-08-21T05:48:53;97785.22;;;18.95;52.77
70506;BME280;58032;49.820;6.274;2022-08-21T05:51:21;97778.50;;;17.53;56.00
70506;BME280;58032;49.820;6.274;2022-08-21T05:53:47;97775.19;;;16.30;60.11
70506;BME280;58032;49.820;6.274;2022-08-21T05:56:15;97775.59;;;17.00;58.70
70506;BME280;58032;49.820;6.274;2022-08-21T05:58:42;97782.84;;;20.45;48.42
70506;BME280;58032;49.820;6.274;2022-08-21T06:01:09;97779.75;;;23.07;42.43
70506;BME280;58032;49.820;6.274;2022-08-21T06:03:39;97771.38;;;24.77;37.77
70506;BME280;58032;49.820;6.274;2022-08-21T06:06:07;97769.06;;;26.06;33.90
70506;BME280;58032;49.820;6.274;2022-08-21T06:08:36;97767.72;;;25.86;34.48
70506;BME280;58032;49.820;6.274;2022-08-21T06:11:04;97764.88;;;23.66;39.48
70506;BME280;58032;49.820;6.274;2022-08-21T06:13:32;97775.59;;;18.00;52.56
70506;BME280;58032;49.820;6.274;2022-08-21T06:16:11;97771.84;;;17.88;54.27
70506;BME280;58032;49.820;6.274;2022-08-21T06:18:40;97770.69;;;17.21;61.18
70506;BME280;58032;49.820;6.274;2022-08-21T06:21:08;97773.09;;;16.10;63.36
70506;BME280;58032;49.820;6.274;2022-08-21T06:23:35;97769.44;;;16.25;63.56
70506;BME280;58032;49.820;6.274;2022-08-21T06:26:03;97761.34;;;15.73;64.73
70506;BME280;58032;49.820;6.274;2022-08-21T06:28:32;97772.09;;;15.09;66.96
70506;BME280;58032;49.820;6.274;2022-08-21T06:31:00;97763.72;;;15.74;67.73
70506;BME280;58032;49.820;6.274;2022-08-21T06:33:27;97765.75;;;15.29;67.11
70506;BME280;58032;49.820;6.274;2022-08-21T06:35:57;97769.50;;;15.35;68.06
70506;BME280;58032;49.820;6.274;2022-08-21T06:38:24;97766.63;;;16.10;66.24
70506;BME280;58032;49.820;6.274;2022-08-21T06:40:51;97768.63;;;15.59;66.68
70506;BME280;58032;49.820;6.274;2022-08-21T06:43:18;97761.28;;;15.52;67.95
70506;BME280;58032;49.820;6.274;2022-08-21T06:45:45;97766.81;;;15.76;67.11
70506;BME280;58032;49.820;6.274;2022-08-21T06:48:12;97769.69;;;15.31;68.41
70506;BME280;58032;49.820;6.274;2022-08-21T06:50:42;97767.22;;;15.24;68.57
70506;BME280;58032;49.820;6.274;2022-08-21T06:53:13;97761.53;;;15.99;66.83
70506;BME280;58032;49.820;6.274;2022-08-21T06:55:40;97758.28;;;16.06;66.10
70506;BME280;58032;49.820;6.274;2022-08-21T06:58:09;97762.81;;;15.98;66.62
70506;BME280;58032;49.820;6.274;2022-08-21T07:00:43;97760.53;;;16.17;65.68
70506;BME280;58032;49.820;6.274;2022-08-21T07:03:24;97766.34;;;16.43;65.20
70506;BME280;58032;49.820;6.274;2022-08-21T07:05:51;97762.88;;;16.75;64.02
70506;BME280;58032;49.820;6.274;2022-08-21T07:08:19;97762.75;;;17.58;61.22
70506;BME280;58032;49.820;6.274;2022-08-21T07:10:47;97764.19;;;17.47;61.08
70506;BME280;58032;49.820;6.274;2022-08-21T07:13:15;97760.13;;;18.12;57.91
70506;BME280;58032;49.820;6.274;2022-08-21T07:15:43;97760.13;;;17.28;60.13
70506;BME280;58032;49.820;6.274;2022-08-21T07:18:11;97761.88;;;18.47;57.12
70506;BME280;58032;49.820;6.274;2022-08-21T07:20:40;97759.66;;;19.29;55.30
70506;BME280;58032;49.820;6.274;2022-08-21T07:23:12;97762.34;;;19.61;53.77
70506;BME280;58032;49.820;6.274;2022-08-21T07:25:39;97762.59;;;19.57;52.62
70506;BME280;58032;49.820;6.274;2022-08-21T07:28:06;97771.94;;;19.64;49.45
70506;BME280;58032;49.820;6.274;2022-08-21T07:30:33;97764.78;;;20.95;48.61
70506;BME280;58032;49.820;6.274;2022-08-21T07:33:00;97761.69;;;20.70;49.54
70506;BME280;58032;49.820;6.274;2022-08-21T07:35:27;97761.84;;;21.60;44.66
70506;BME280;58032;49.820;6.274;2022-08-21T07:37:54;97763.03;;;22.06;42.86
70506;BME280;58032;49.820;6.274;2022-08-21T07:40:22;97758.47;;;21.92;43.91
70506;BME280;58032;49.820;6.274;2022-08-21T07:42:49;97759.44;;;22.00;43.49
70506;BME280;58032;49.820;6.274;2022-08-21T07:45:20;97757.06;;;21.74;44.33
70506;BME280;58032;49.820;6.274;2022-08-21T07:47:48;97763.66;;;23.23;42.43
70506;BME280;58032;49.820;6.274;2022-08-21T07:50:16;97764.06;;;23.08;42.10
70506;BME280;58032;49.820;6.274;2022-08-21T07:52:43;97756.22;;;24.17;40.37
70506;BME280;58032;49.820;6.274;2022-08-21T07:55:14;97759.91;;;24.45;39.14
70506;BME280;58032;49.820;6.274;2022-08-21T07:57:41;97762.97;;;23.87;41.63
70506;BME280;58032;49.820;6.274;2022-08-21T08:00:13;97759.34;;;25.27;38.70
70506;BME280;58032;49.820;6.274;2022-08-21T08:02:44;97762.53;;;24.16;38.53
70506;BME280;58032;49.820;6.274;2022-08-21T08:05:12;97771.53;;;22.98;41.17
70506;BME280;58032;49.820;6.274;2022-08-21T08:07:39;97756.06;;;24.96;38.16
70506;BME280;58032;49.820;6.274;2022-08-21T08:10:07;97755.50;;;25.11;37.16
70506;BME280;58032;49.820;6.274;2022-08-21T08:12:36;97757.97;;;23.17;40.16
70506;BME280;58032;49.820;6.274;2022-08-21T08:15:05;97746.91;;;22.58;41.62
70506;BME280;58032;49.820;6.274;2022-08-21T08:17:33;97753.13;;;22.63;43.20
70506;BME280;58032;49.820;6.274;2022-08-21T08:20:00;97749.63;;;22.95;41.58
70506;BME280;58032;49.820;6.274;2022-08-21T08:22:30;97737.03;;;23.74;40.52
70506;BME280;58032;49.820;6.274;2022-08-21T08:24:57;97733.56;;;24.94;39.73
70506;BME280;58032;49.820;6.274;2022-08-21T08:27:24;97742.66;;;23.47;40.19
70506;BME280;58032;49.820;6.274;2022-08-21T08:29:51;97738.81;;;23.77;40.02
70506;BME280;58032;49.820;6.274;2022-08-21T08:32:19;97738.13;;;24.63;37.39
70506;BME280;58032;49.820;6.274;2022-08-21T08:34:48;97736.75;;;24.24;37.26
70506;BME280;58032;49.820;6.274;2022-08-21T08:37:15;97738.38;;;24.06;38.99
70506;BME280;58032;49.820;6.274;2022-08-21T08:39:42;97736.47;;;24.68;37.49
70506;BME280;58032;49.820;6.274;2022-08-21T08:44:45;97738.22;;;23.46;39.51
70506;BME280;58032;49.820;6.274;2022-08-21T08:47:15;97733.69;;;24.35;37.51
70506;BME280;58032;49.820;6.274;2022-08-21T08:49:51;97730.75;;;24.08;37.62
70506;BME280;58032;49.820;6.274;2022-08-21T08:52:27;97731.78;;;23.92;39.32
70506;BME280;58032;49.820;6.274;2022-08-21T08:55:12;97730.91;;;24.43;37.02
70506;BME280;58032;49.820;6.274;2022-08-21T08:57:44;97739.63;;;23.91;39.04
70506;BME280;58032;49.820;6.274;2022-08-21T09:00:14;97736.72;;;22.82;40.39
70506;BME280;58032;49.820;6.274;2022-08-21T09:02:44;97734.69;;;22.77;41.52
70506;BME280;58032;49.820;6.274;2022-08-21T09:05:28;97753.84;;;23.32;40.79
70506;BME280;58032;49.820;6.274;2022-08-21T09:11:04;97743.72;;;22.37;43.01
70506;BME280;58032;49.820;6.274;2022-08-21T09:16:31;97736.84;;;22.71;40.94
70506;BME280;58032;49.820;6.274;2022-08-21T09:27:12;97730.25;;;22.76;40.50
70506;BME280;58032;49.820;6.274;2022-08-21T09:29:45;97729.72;;;23.41;39.41
70506;BME280;58032;49.820;6.274;2022-08-21T09:32:22;97722.31;;;23.45;38.01
70506;BME280;58032;49.820;6.274;2022-08-21T09:34:59;97723.41;;;23.04;38.61
70506;BME280;58032;49.820;6.274;2022-08-21T09:37:30;97724.09;;;23.10;38.35
70506;BME280;58032;49.820;6.274;2022-08-21T09:39:58;97728.22;;;22.96;39.07
70506;BME280;58032;49.820;6.274;2022-08-21T09:42:31;97725.66;;;23.11;38.59
70506;BME280;58032;49.820;6.274;2022-08-21T09:45:25;97722.00;;;23.30;38.53
70506;BME280;58032;49.820;6.274;2022-08-21T09:47:52;97717.50;;;23.34;37.73
70506;BME280;58032;49.820;6.274;2022-08-21T09:50:23;97720.63;;;23.17;37.46
70506;BME280;58032;49.820;6.274;2022-08-21T09:52:53;97721.56;;;23.26;38.17
70506;BME280;58032;49.820;6.274;2022-08-21T09:58:13;97723.75;;;23.19;38.11
70506;BME280;58032;49.820;6.274;2022-08-21T10:00:42;97718.31;;;23.35;37.38
70506;BME280;58032;49.820;6.274;2022-08-21T10:05:37;97717.19;;;23.38;36.81
70506;BME280;58032;49.820;6.274;2022-08-21T10:08:16;97704.00;;;23.10;37.76
70506;BME280;58032;49.820;6.274;2022-08-21T10:10:44;97709.00;;;23.29;37.64
70506;BME280;58032;49.820;6.274;2022-08-21T10:13:12;97701.13;;;22.91;38.07
70506;BME280;58032;49.820;6.274;2022-08-21T10:16:02;97701.06;;;23.35;37.68
70506;BME280;58032;49.820;6.274;2022-08-21T10:30:05;97677.22;;;24.45;34.97
70506;BME280;58032;49.820;6.274;2022-08-21T10:40:42;97682.31;;;24.66;33.33
70506;BME280;58032;49.820;6.274;2022-08-21T10:49:17;97675.09;;;24.19;35.35
70506;BME280;58032;49.820;6.274;2022-08-21T10:52:02;97672.81;;;23.85;34.60
70506;BME280;58032;49.820;6.274;2022-08-21T10:54:50;97680.13;;;23.86;35.32
70506;BME280;58032;49.820;6.274;2022-08-21T11:00:21;97676.97;;;24.03;34.06
70506;BME280;58032;49.820;6.274;2022-08-21T11:05:30;97670.81;;;24.26;32.95
70506;BME280;58032;49.820;6.274;2022-08-21T11:08:05;97671.66;;;24.61;33.29
70506;BME280;58032;49.820;6.274;2022-08-21T11:10:39;97672.34;;;24.27;32.52
70506;BME280;58032;49.820;6.274;2022-08-21T11:18:33;97657.06;;;24.59;33.80
70506;BME280;58032;49.820;6.274;2022-08-21T11:21:27;97663.06;;;24.21;34.29
70506;BME280;58032;49.820;6.274;2022-08-21T11:24:30;97662.56;;;23.90;34.64
70506;BME280;58032;49.820;6.274;2022-08-21T11:27:04;97656.50;;;24.07;34.10
70506;BME280;58032;49.820;6.274;2022-08-21T11:29:36;97649.50;;;23.89;34.75
70506;BME280;58032;49.820;6.274;2022-08-21T11:32:20;97652.31;;;23.94;34.20
70506;BME280;58032;49.820;6.274;2022-08-21T11:35:13;97657.41;;;24.01;34.50
70506;BME280;58032;49.820;6.274;2022-08-21T11:45:53;97629.81;;;24.60;34.00
70506;BME280;58032;49.820;6.274;2022-08-21T11:48:57;97633.72;;;24.76;33.17
70506;BME280;58032;49.820;6.274;2022-08-21T11:51:36;97633.47;;;24.60;33.62
70506;BME280;58032;49.820;6.274;2022-08-21T11:56:50;97643.78;;;24.83;33.69
70506;BME280;58032;49.820;6.274;2022-08-21T11:59:39;97642.25;;;23.68;34.43
70506;BME280;58032;49.820;6.274;2022-08-21T12:02:15;97638.66;;;24.75;34.21
70506;BME280;58032;49.820;6.274;2022-08-21T12:04:48;97629.72;;;24.52;33.70
70506;BME280;58032;49.820;6.274;2022-08-21T12:07:31;97634.59;;;24.57;34.05
70506;BME280;58032;49.820;6.274;2022-08-21T12:10:00;97633.84;;;24.43;34.75
70506;BME280;58032;49.820;6.274;2022-08-21T12:12:31;97620.75;;;24.69;33.21
70506;BME280;58032;49.820;6.274;2022-08-21T12:15:14;97625.06;;;24.62;33.24
70506;BME280;58032;49.820;6.274;2022-08-21T12:18:36;97611.25;;;24.95;32.64
70506;BME280;58032;49.820;6.274;2022-08-21T12:25:43;97609.38;;;25.54;33.14
70506;BME280;58032;49.820;6.274;2022-08-21T12:28:13;97612.44;;;24.52;32.73
70506;BME280;58032;49.820;6.274;2022-08-21T12:30:44;97605.56;;;24.82;32.87
70506;BME280;58032;49.820;6.274;2022-08-21T12:33:30;97602.66;;;25.17;32.81
70506;BME280;58032;49.820;6.274;2022-08-21T12:36:06;97594.59;;;25.57;32.07
70506;BME280;58032;49.820;6.274;2022-08-21T12:38:57;97604.22;;;25.81;30.64
70506;BME280;58032;49.820;6.274;2022-08-21T12:41:31;97597.38;;;25.92;31.21
70506;BME280;58032;49.820;6.274;2022-08-21T12:44:09;97595.34;;;25.79;31.70
70506;BME280;58032;49.820;6.274;2022-08-21T12:46:50;97600.63;;;25.88;30.55
70506;BME280;58032;49.820;6.274;2022-08-21T12:49:37;97594.50;;;25.92;30.56
70506;BME280;58032;49.820;6.274;2022-08-21T12:52:23;97585.06;;;25.63;30.28
70506;BME280;58032;49.820;6.274;2022-08-21T12:54:50;97582.31;;;26.80;30.64
70506;BME280;58032;49.820;6.274;2022-08-21T12:57:27;97580.59;;;26.85;28.31
70506;BME280;58032;49.820;6.274;2022-08-21T13:00:00;97586.50;;;27.39;28.21
70506;BME280;58032;49.820;6.274;2022-08-21T13:02:33;97578.00;;;27.95;26.86
70506;BME280;58032;49.820;6.274;2022-08-21T13:05:04;97568.16;;;28.78;25.57
70506;BME280;58032;49.820;6.274;2022-08-21T13:07:34;97567.06;;;30.60;24.35
70506;BME280;58032;49.820;6.274;2022-08-21T13:10:06;97564.19;;;31.80;21.97
70506;BME280;58032;49.820;6.274;2022-08-21T13:12:41;97567.34;;;28.29;25.21
70506;BME280;58032;49.820;6.274;2022-08-21T13:15:09;97563.03;;;29.52;23.94
70506;BME280;58032;49.820;6.274;2022-08-21T13:17:39;97563.56;;;28.59;25.14
70506;BME280;58032;49.820;6.274;2022-08-21T13:20:27;97566.19;;;29.72;23.95
70506;BME280;58032;49.820;6.274;2022-08-21T13:22:54;97565.16;;;30.20;23.16
70506;BME280;58032;49.820;6.274;2022-08-21T13:25:28;97562.66;;;30.69;22.77
70506;BME280;58032;49.820;6.274;2022-08-21T13:28:10;97573.75;;;30.81;22.96
70506;BME280;58032;49.820;6.274;2022-08-21T13:30:43;97561.91;;;30.69;21.75
70506;BME280;58032;49.820;6.274;2022-08-21T13:33:12;97561.31;;;30.70;21.95
70506;BME280;58032;49.820;6.274;2022-08-21T13:35:48;97557.84;;;29.51;23.40
70506;BME280;58032;49.820;6.274;2022-08-21T13:38:17;97559.78;;;29.23;23.74
70506;BME280;58032;49.820;6.274;2022-08-21T13:40:49;97561.81;;;28.08;25.13
70506;BME280;58032;49.820;6.274;2022-08-21T13:43:26;97562.41;;;29.29;24.70
70506;BME280;58032;49.820;6.274;2022-08-21T13:45:56;97564.94;;;28.99;25.63
70506;BME280;58032;49.820;6.274;2022-08-21T13:48:33;97557.97;;;30.74;23.07
70506;BME280;58032;49.820;6.274;2022-08-21T13:51:01;97558.78;;;29.53;22.96
70506;BME280;58032;49.820;6.274;2022-08-21T13:53:33;97548.22;;;29.66;23.07
70506;BME280;58032;49.820;6.274;2022-08-21T13:56:03;97555.50;;;30.35;21.71
70506;BME280;58032;49.820;6.274;2022-08-21T13:58:45;97547.75;;;31.75;20.76
70506;BME280;58032;49.820;6.274;2022-08-21T14:01:32;97547.81;;;31.94;20.71
70506;BME280;58032;49.820;6.274;2022-08-21T14:04:07;97534.06;;;32.44;19.45
70506;BME280;58032;49.820;6.274;2022-08-21T14:06:38;97539.72;;;31.65;20.26
70506;BME280;58032;49.820;6.274;2022-08-21T14:09:12;97541.19;;;29.77;22.54
70506;BME280;58032;49.820;6.274;2022-08-21T14:11:39;97540.84;;;29.90;22.66
70506;BME280;58032;49.820;6.274;2022-08-21T14:16:56;97538.66;;;27.92;25.06
70506;BME280;58032;49.820;6.274;2022-08-21T14:19:34;97539.63;;;27.41;25.63
70506;BME280;58032;49.820;6.274;2022-08-21T14:22:22;97539.63;;;26.50;27.17
70506;BME280;58032;49.820;6.274;2022-08-21T14:24:50;97546.75;;;26.49;26.80
70506;BME280;58032;49.820;6.274;2022-08-21T14:27:30;97550.97;;;27.00;25.81
70506;BME280;58032;49.820;6.274;2022-08-21T14:30:09;97543.13;;;27.78;27.65
70506;BME280;58032;49.820;6.274;2022-08-21T14:32:39;97540.41;;;27.80;25.41
70506;BME280;58032;49.820;6.274;2022-08-21T14:35:07;97538.31;;;27.65;25.23
70506;BME280;58032;49.820;6.274;2022-08-21T14:37:35;97538.25;;;27.96;24.96
70506;BME280;58032;49.820;6.274;2022-08-21T14:40:04;97535.56;;;27.28;25.85